Time;durP1;ratioP1;P1;durP2;ratioP2;P2;SDS_P1;SDS_P2;PMS_P1;PMS_P2;Temp;Humidity;BMP_temperature;BMP_pressure;BME280_temperature;BME280_humidity;BME280_pressure;Samples;Min_cycle;Max_cycle;Signal;HPM_P1;HPM_P2
2023/07/08 00:00:57;;;;;;;5.73;4.60;;;;;15.00;97501.00;;;;4991476;28;20202;-86
2023/07/08 00:03:47;;;;;;;12.27;5.17;;;;;14.80;97483.00;;;;4989128;28;20209;-85
2023/07/08 00:06:37;;;;;;;12.07;7.27;;;;;15.00;97490.00;;;;4994033;28;20979;-85
2023/07/08 00:09:26;;;;;;;10.53;5.87;;;;;15.10;97485.00;;;;4994512;28;20218;-84
2023/07/08 00:12:16;;;;;;;8.17;4.70;;;;;15.30;97488.00;;;;4994508;28;20207;-87
2023/07/08 00:15:06;;;;;;;7.97;5.23;;;;;15.30;97490.00;;;;4995231;28;20205;-85
2023/07/08 00:17:55;;;;;;;11.33;5.70;;;;;15.00;97488.00;;;;4994271;28;20225;-86
2023/07/08 00:20:46;;;;;;;8.47;5.37;;;;;14.60;97485.00;;;;4995010;28;20929;-86
2023/07/08 00:23:36;;;;;;;11.53;5.20;;;;;14.60;97477.00;;;;4989479;28;20692;-85
2023/07/08 00:26:27;;;;;;;9.30;5.40;;;;;14.40;97476.00;;;;4995631;28;20222;-86
2023/07/08 00:29:18;;;;;;;8.43;5.13;;;;;14.30;97474.00;;;;4996031;28;20224;-86
2023/07/08 00:32:13;;;;;;;9.77;5.67;;;;;14.40;97472.00;;;;4991596;28;20686;-85
2023/07/08 00:35:02;;;;;;;13.20;6.03;;;;;15.00;97476.00;;;;4992331;28;20688;-86
2023/07/08 00:37:53;;;;;;;7.80;5.40;;;;;15.30;97460.00;;;;4992539;28;20202;-86
2023/07/08 00:40:51;;;;;;;12.40;5.57;;;;;15.20;97457.00;;;;4991406;28;20211;-85
2023/07/08 00:43:41;;;;;;;8.50;5.13;;;;;15.00;97462.00;;;;4992626;28;20206;-85
2023/07/08 00:46:38;;;;;;;10.17;5.00;;;;;15.00;97467.00;;;;4992589;28;20269;-86
2023/07/08 00:49:36;;;;;;;7.80;4.63;;;;;15.00;97459.00;;;;4991542;28;20234;-86
2023/07/08 00:52:27;;;;;;;9.30;4.97;;;;;15.00;97468.00;;;;4991963;28;20215;-85
2023/07/08 00:55:16;;;;;;;9.07;5.10;;;;;15.00;97456.00;;;;4992267;28;20225;-85
2023/07/08 00:58:05;;;;;;;11.63;5.30;;;;;14.70;97457.00;;;;4992238;28;20221;-86
2023/07/08 01:00:56;;;;;;;9.10;5.17;;;;;14.80;97456.00;;;;4986509;28;20198;-86
2023/07/08 01:03:50;;;;;;;10.33;5.13;;;;;14.80;97463.00;;;;4991374;28;20199;-85
2023/07/08 01:06:42;;;;;;;6.63;5.93;;;;;15.00;97462.00;;;;4990464;28;20588;-86
2023/07/08 01:09:33;;;;;;;10.30;5.80;;;;;14.80;97458.00;;;;4991462;28;20229;-86
2023/07/08 01:12:24;;;;;;;6.43;5.50;;;;;14.50;97462.00;;;;4991629;28;20203;-85
2023/07/08 01:15:14;;;;;;;11.23;5.57;;;;;14.30;97450.00;;;;4990787;28;20207;-85
2023/07/08 01:18:04;;;;;;;7.60;5.30;;;;;14.10;97451.00;;;;4991808;28;20217;-85
2023/07/08 01:20:56;;;;;;;9.67;5.53;;;;;14.20;97451.00;;;;4986108;28;20214;-85
2023/07/08 01:23:46;;;;;;;8.03;5.10;;;;;14.10;97454.00;;;;4988324;28;20692;-85
2023/07/08 01:26:37;;;;;;;9.80;6.10;;;;;14.00;97450.00;;;;4989823;28;20226;-85
2023/07/08 01:29:26;;;;;;;8.33;5.67;;;;;14.20;97456.00;;;;4990645;28;20728;-85
2023/07/08 01:32:17;;;;;;;5.60;5.07;;;;;14.30;97449.00;;;;4991125;28;20207;-85
2023/07/08 01:35:10;;;;;;;10.27;6.07;;;;;14.50;97449.00;;;;4990566;28;20705;-85
2023/07/08 01:38:01;;;;;;;8.73;5.77;;;;;14.50;97452.00;;;;4990688;28;20218;-86
2023/07/08 01:40:54;;;;;;;7.80;4.77;;;;;14.50;97448.00;;;;4990467;28;20195;-87
2023/07/08 01:43:43;;;;;;;11.93;5.17;;;;;14.80;97438.00;;;;4990104;28;20214;-87
2023/07/08 01:46:32;;;;;;;8.70;5.40;;;;;14.80;97451.00;;;;4991126;28;20693;-85
2023/07/08 01:49:21;;;;;;;10.07;6.95;;;;;14.50;97449.00;;;;4987576;28;20418;-86
2023/07/08 01:52:10;;;;;;;11.80;5.97;;;;;14.60;97445.00;;;;4989877;28;20203;-85
2023/07/08 01:54:59;;;;;;;8.70;6.53;;;;;14.20;97438.00;;;;4989224;28;20214;-85
2023/07/08 01:57:51;;;;;;;9.97;6.03;;;;;13.90;97444.00;;;;4990006;28;20213;-85
2023/07/08 02:00:40;;;;;;;8.03;5.93;;;;;14.10;97453.00;;;;4987596;28;20216;-86
2023/07/08 02:03:29;;;;;;;12.13;5.70;;;;;14.10;97447.00;;;;4988748;28;20566;-85
2023/07/08 02:06:19;;;;;;;7.77;5.20;;;;;13.90;97450.00;;;;4989293;28;20231;-85
2023/07/08 02:09:08;;;;;;;9.37;6.00;;;;;14.00;97458.00;;;;4990325;28;20230;-86
2023/07/08 02:11:57;;;;;;;8.07;5.33;;;;;14.00;97463.00;;;;4990152;28;20207;-87
2023/07/08 02:14:47;;;;;;;7.03;5.23;;;;;14.40;97461.00;;;;4988412;28;20198;-86
2023/07/08 02:17:36;;;;;;;12.07;6.40;;;;;14.50;97458.00;;;;4988754;28;20195;-86
2023/07/08 02:20:26;;;;;;;8.47;5.27;;;;;14.80;97456.00;;;;4989210;28;20604;-85
2023/07/08 02:23:15;;;;;;;7.67;5.10;;;;;14.70;97455.00;;;;4987063;28;20214;-85
2023/07/08 02:26:04;;;;;;;7.40;4.93;;;;;14.70;97449.00;;;;4990395;28;20778;-85
2023/07/08 02:28:53;;;;;;;7.30;5.97;;;;;14.40;97462.00;;;;4984774;28;20238;-86
2023/07/08 02:31:45;;;;;;;9.47;5.93;;;;;14.20;97457.00;;;;4989141;28;20265;-85
2023/07/08 02:34:34;;;;;;;7.60;5.47;;;;;14.00;97459.00;;;;4991169;28;20225;-86
2023/07/08 02:37:23;;;;;;;8.50;5.30;;;;;14.30;97453.00;;;;4983240;28;20210;-87
2023/07/08 02:40:14;;;;;;;7.60;5.70;;;;;14.20;97454.00;;;;4986808;28;20234;-86
2023/07/08 02:43:03;;;;;;;12.33;6.23;;;;;14.00;97454.00;;;;4991522;28;20199;-87
2023/07/08 02:45:52;;;;;;;13.05;6.47;;;;;14.00;97453.00;;;;4987961;28;20467;-86
2023/07/08 02:48:42;;;;;;;12.23;5.50;;;;;14.20;97453.00;;;;4990039;28;20254;-86
2023/07/08 02:51:31;;;;;;;7.43;4.97;;;;;14.30;97452.00;;;;4989830;28;20720;-86
2023/07/08 02:54:20;;;;;;;6.20;4.87;;;;;14.20;97454.00;;;;4991408;28;20241;-85
2023/07/08 02:57:09;;;;;;;9.85;6.50;;;;;13.90;97453.00;;;;4985261;28;20939;-86
2023/07/08 02:59:58;;;;;;;10.77;6.60;;;;;14.10;97458.00;;;;4988902;28;20235;-85
2023/07/08 03:02:47;;;;;;;9.47;5.63;;;;;14.00;97455.00;;;;4991938;28;20741;-86
2023/07/08 03:05:38;;;;;;;7.77;5.20;;;;;14.40;97453.00;;;;4991100;28;20206;-87
2023/07/08 03:08:27;;;;;;;9.57;5.90;;;;;14.20;97456.00;;;;4989934;28;20228;-87
2023/07/08 03:11:16;;;;;;;10.23;6.17;;;;;14.20;97450.00;;;;4991550;28;20202;-86
2023/07/08 03:14:06;;;;;;;8.40;5.93;;;;;14.20;97453.00;;;;4992191;28;20692;-86
2023/07/08 03:16:55;;;;;;;10.53;6.00;;;;;14.20;97448.00;;;;4985019;28;20206;-87
2023/07/08 03:19:44;;;;;;;9.63;6.10;;;;;14.10;97442.00;;;;4986330;28;20233;-86
2023/07/08 03:22:34;;;;;;;7.73;6.17;;;;;13.70;97447.00;;;;4984444;28;20222;-86
2023/07/08 03:25:24;;;;;;;10.30;6.03;;;;;13.50;97448.00;;;;4989715;28;20752;-85
2023/07/08 03:28:14;;;;;;;8.63;4.97;;;;;13.60;97450.00;;;;4988480;28;20242;-86
2023/07/08 03:31:03;;;;;;;9.93;6.63;;;;;13.80;97449.00;;;;4989054;28;20273;-86
2023/07/08 03:33:52;;;;;;;7.53;5.13;;;;;14.10;97441.00;;;;4991374;28;20221;-86
2023/07/08 03:36:48;;;;;;;8.73;6.10;;;;;14.20;97434.00;;;;4984015;28;20198;-86
2023/07/08 03:39:38;;;;;;;11.27;6.37;;;;;14.20;97435.00;;;;4988092;28;20227;-87
2023/07/08 03:42:27;;;;;;;11.33;6.63;;;;;14.40;97445.00;;;;4989961;28;20214;-87
2023/07/08 03:45:17;;;;;;;8.17;5.80;;;;;13.90;97435.00;;;;4989481;28;20209;-87
2023/07/08 03:48:06;;;;;;;14.50;6.37;;;;;13.90;97442.00;;;;4985758;28;20239;-86
2023/07/08 03:50:55;;;;;;;15.07;6.20;;;;;14.30;97443.00;;;;4991141;28;20203;-86
2023/07/08 03:53:44;;;;;;;8.53;6.23;;;;;14.30;97444.00;;;;4991168;28;20222;-87
2023/07/08 03:56:35;;;;;;;12.47;6.47;;;;;14.00;97451.00;;;;4990956;28;20198;-85
2023/07/08 03:59:24;;;;;;;12.63;5.80;;;;;13.70;97448.00;;;;4989523;28;20701;-86
2023/07/08 04:02:13;;;;;;;10.23;5.53;;;;;13.40;97452.00;;;;4988122;28;20199;-88
2023/07/08 04:05:03;;;;;;;9.30;5.87;;;;;13.60;97446.00;;;;4989114;28;20220;-87
2023/07/08 04:07:52;;;;;;;8.57;6.13;;;;;13.40;97436.00;;;;4984821;28;20226;-86
2023/07/08 04:10:41;;;;;;;9.50;6.03;;;;;13.80;97441.00;;;;4992395;28;20214;-87
2023/07/08 04:13:32;;;;;;;13.80;6.40;;;;;14.10;97441.00;;;;4993986;28;20213;-86
2023/07/08 04:16:24;;;;;;;9.87;6.37;;;;;13.90;97426.00;;;;4995188;28;20505;-86
2023/07/08 04:19:15;;;;;;;9.80;5.90;;;;;14.10;97429.00;;;;4996200;28;20226;-86
2023/07/08 04:22:05;;;;;;;9.57;6.27;;;;;14.30;97425.00;;;;4994125;28;20768;-85
2023/07/08 04:24:55;;;;;;;11.10;7.27;;;;;14.40;97425.00;;;;4993905;28;20222;-86
2023/07/08 04:27:44;;;;;;;8.40;5.37;;;;;14.80;97421.00;;;;4994869;28;20231;-87
2023/07/08 04:30:40;;;;;;;10.00;6.03;;;;;15.20;97418.00;;;;4994148;28;20210;-86
2023/07/08 04:33:29;;;;;;;8.40;5.43;;;;;15.10;97414.00;;;;4992561;28;20218;-86
2023/07/08 04:36:21;;;;;;;10.17;6.43;;;;;14.80;97393.00;;;;4992699;28;20695;-86
2023/07/08 04:39:11;;;;;;;7.37;6.30;;;;;14.60;97408.00;;;;4993027;28;20227;-87
2023/07/08 04:42:00;;;;;;;9.47;5.73;;;;;14.60;97405.00;;;;4993813;28;20206;-86
2023/07/08 04:44:49;;;;;;;10.93;5.53;;;;;14.40;97411.00;;;;4992165;28;20596;-85
2023/07/08 04:47:40;;;;;;;9.50;6.30;;;;;14.60;97407.00;;;;4994987;28;20233;-87
2023/07/08 04:50:29;;;;;;;10.60;5.83;;;;;14.60;97401.00;;;;4986685;28;20234;-86
2023/07/08 04:53:18;;;;;;;12.63;6.17;;;;;15.00;97402.00;;;;4994724;28;20622;-85
2023/07/08 04:56:08;;;;;;;8.70;6.33;;;;;15.10;97388.00;;;;4994572;28;20596;-85
2023/07/08 04:58:57;;;;;;;11.93;7.27;;;;;15.50;97391.00;;;;4993957;28;20222;-86
2023/07/08 05:01:47;;;;;;;11.07;6.70;;;;;15.50;97389.00;;;;4994412;28;20207;-86
2023/07/08 05:04:39;;;;;;;11.83;7.07;;;;;15.50;97385.00;;;;4992522;28;20209;-87
2023/07/08 05:07:28;;;;;;;10.50;6.80;;;;;15.40;97375.00;;;;4996333;28;20460;-86
2023/07/08 05:10:17;;;;;;;10.00;6.67;;;;;15.80;97382.00;;;;4994916;28;20604;-86
2023/07/08 05:13:06;;;;;;;9.40;6.20;;;;;15.80;97376.00;;;;4994642;28;20222;-86
2023/07/08 05:15:55;;;;;;;13.70;7.47;;;;;16.40;97379.00;;;;4989638;28;20202;-87
2023/07/08 05:18:44;;;;;;;7.73;5.60;;;;;16.50;97380.00;;;;4996034;28;20229;-87
2023/07/08 05:21:35;;;;;;;7.40;5.97;;;;;16.70;97373.00;;;;4995966;28;20201;-86
2023/07/08 05:24:24;;;;;;;10.40;7.17;;;;;16.70;97373.00;;;;4985314;28;20221;-88
2023/07/08 05:27:14;;;;;;;10.70;7.30;;;;;16.90;97372.00;;;;4996736;28;20215;-86
2023/07/08 05:30:05;;;;;;;12.37;6.23;;;;;16.70;97372.00;;;;4995393;28;20226;-86
2023/07/08 05:32:55;;;;;;;8.37;6.37;;;;;17.10;97379.00;;;;4994657;28;20205;-86
2023/07/08 05:35:46;;;;;;;10.33;6.20;;;;;17.00;97377.00;;;;4994990;28;20786;-86
2023/07/08 05:38:36;;;;;;;10.03;6.20;;;;;17.40;97381.00;;;;4995746;28;20224;-86
2023/07/08 05:41:25;;;;;;;9.00;5.40;;;;;17.60;97391.00;;;;4992961;28;20556;-86
2023/07/08 05:44:14;;;;;;;10.77;6.77;;;;;17.70;97384.00;;;;4993910;28;20723;-87
2023/07/08 05:47:05;;;;;;;10.83;5.60;;;;;18.10;97380.00;;;;4993584;28;20202;-87
2023/07/08 05:49:54;;;;;;;10.50;6.17;;;;;18.20;97379.00;;;;4991174;28;20230;-87
2023/07/08 05:52:43;;;;;;;10.67;5.97;;;;;18.50;97382.00;;;;4992222;28;20221;-86
2023/07/08 05:55:34;;;;;;;9.63;6.13;;;;;18.70;97382.00;;;;4992320;28;20222;-86
2023/07/08 05:58:23;;;;;;;9.43;6.10;;;;;19.00;97383.00;;;;4992225;28;20249;-87
2023/07/08 06:01:14;;;;;;;9.43;5.90;;;;;18.70;97371.00;;;;4987326;28;20268;-87
2023/07/08 06:04:03;;;;;;;7.40;5.33;;;;;19.20;97379.00;;;;5002049;28;20210;-88
2023/07/08 06:06:52;;;;;;;10.10;5.30;;;;;19.50;97377.00;;;;5003965;28;20235;-87
2023/07/08 06:09:41;;;;;;;10.50;5.90;;;;;19.90;97379.00;;;;4988413;28;20234;-87
2023/07/08 06:12:32;;;;;;;6.97;5.50;;;;;20.10;97367.00;;;;4988034;28;20210;-87
2023/07/08 06:15:21;;;;;;;11.00;5.43;;;;;20.30;97379.00;;;;4990974;28;20212;-87
2023/07/08 06:18:10;;;;;;;9.23;5.00;;;;;20.20;97383.00;;;;4989871;28;20199;-87
2023/07/08 06:21:00;;;;;;;9.37;5.43;;;;;20.50;97381.00;;;;4988587;28;20666;-87
2023/07/08 06:23:49;;;;;;;10.43;5.90;;;;;20.80;97380.00;;;;4986108;28;20210;-87
2023/07/08 06:26:38;;;;;;;10.93;5.63;;;;;20.80;97377.00;;;;4988361;28;20686;-87
2023/07/08 06:29:29;;;;;;;8.83;5.60;;;;;21.20;97384.00;;;;4986592;28;20244;-87
2023/07/08 06:32:18;;;;;;;7.30;4.30;;;;;21.50;97378.00;;;;4984730;28;20207;-88
2023/07/08 06:35:08;;;;;;;8.50;5.23;;;;;21.60;97373.00;;;;4984848;28;20232;-88
2023/07/08 06:37:57;;;;;;;8.03;4.93;;;;;21.90;97368.00;;;;4987772;28;20225;-88
2023/07/08 06:40:46;;;;;;;7.67;5.20;;;;;22.00;97361.00;;;;4989009;28;20210;-87
2023/07/08 06:43:35;;;;;;;12.30;5.77;;;;;22.20;97360.00;;;;4983307;28;20221;-88
2023/07/08 06:46:25;;;;;;;6.43;4.93;;;;;22.40;97357.00;;;;4987688;28;20210;-88
2023/07/08 06:49:15;;;;;;;8.60;5.43;;;;;22.50;97358.00;;;;4986206;28;20289;-87
2023/07/08 06:52:04;;;;;;;7.80;4.93;;;;;22.70;97351.00;;;;5012769;23;20598;-74
2023/07/08 06:54:53;;;;;;;8.90;5.70;;;;;22.90;97355.00;;;;5020604;28;20202;-73
2023/07/08 06:57:42;;;;;;;9.20;5.47;;;;;23.10;97350.00;;;;5022774;28;20225;-73
2023/07/08 07:00:31;;;;;;;7.83;5.83;;;;;23.30;97355.00;;;;5026879;28;20240;-73
2023/07/08 07:03:21;;;;;;;9.43;5.83;;;;;23.40;97342.00;;;;5017954;28;20212;-74
2023/07/08 07:06:10;;;;;;;7.83;5.13;;;;;23.70;97344.00;;;;5041090;28;20663;-72
2023/07/08 07:08:59;;;;;;;6.27;4.93;;;;;23.80;97344.00;;;;5040876;28;20217;-71
2023/07/08 07:11:48;;;;;;;8.17;4.63;;;;;23.70;97347.00;;;;5038039;28;20207;-72
2023/07/08 07:14:37;;;;;;;7.03;4.70;;;;;23.90;97345.00;;;;5044886;28;20720;-74
2023/07/08 07:17:29;;;;;;;5.67;5.03;;;;;24.20;97347.00;;;;5040998;28;20225;-73
2023/07/08 07:20:20;;;;;;;7.57;6.00;;;;;24.40;97343.00;;;;5042512;28;20232;-71
2023/07/08 07:23:09;;;;;;;8.43;4.80;;;;;24.30;97351.00;;;;5043266;28;20205;-72
2023/07/08 07:25:58;;;;;;;8.33;5.50;;;;;24.40;97349.00;;;;5046138;28;20212;-71
2023/07/08 07:28:47;;;;;;;9.43;5.10;;;;;24.40;97350.00;;;;5041876;28;20277;-74
2023/07/08 07:31:39;;;;;;;8.50;5.07;;;;;24.40;97357.00;;;;5043060;28;20703;-72
2023/07/08 07:34:28;;;;;;;8.80;5.10;;;;;24.70;97353.00;;;;5046270;28;20574;-72
2023/07/08 07:37:20;;;;;;;7.83;5.00;;;;;25.10;97346.00;;;;5043184;28;20201;-75
2023/07/08 07:40:12;;;;;;;7.03;4.63;;;;;25.30;97335.00;;;;5036002;28;20243;-73
2023/07/08 07:43:01;;;;;;;7.63;5.40;;;;;25.40;97332.00;;;;5035566;28;20681;-73
2023/07/08 07:45:52;;;;;;;9.63;5.97;;;;;25.40;97329.00;;;;5038477;28;20216;-75
2023/07/08 07:48:42;;;;;;;13.60;5.07;;;;;25.80;97345.00;;;;5039560;28;20221;-73
2023/07/08 07:51:31;;;;;;;6.37;4.67;;;;;25.90;97343.00;;;;5039084;28;20212;-73
2023/07/08 07:54:21;;;;;;;7.00;5.00;;;;;26.20;97332.00;;;;5041854;28;20205;-73
2023/07/08 07:57:10;;;;;;;6.20;4.90;;;;;26.20;97341.00;;;;5049506;28;20703;-74
2023/07/08 07:59:59;;;;;;;5.33;4.27;;;;;26.50;97348.00;;;;5039228;28;20232;-73
2023/07/08 08:02:48;;;;;;;5.83;4.30;;;;;26.80;97338.00;;;;5050929;28;20580;-74
2023/07/08 08:05:37;;;;;;;5.67;4.07;;;;;26.90;97338.00;;;;5042719;28;20204;-74
2023/07/08 08:08:26;;;;;;;7.67;4.37;;;;;27.10;97338.00;;;;5039167;28;20235;-74
2023/07/08 08:11:17;;;;;;;5.60;3.53;;;;;27.10;97339.00;;;;5044136;28;20768;-74
2023/07/08 08:14:06;;;;;;;5.97;3.90;;;;;27.30;97332.00;;;;5049278;28;20210;-74
2023/07/08 08:16:55;;;;;;;6.93;4.03;;;;;27.20;97340.00;;;;5049844;28;20209;-74
2023/07/08 08:19:44;;;;;;;6.60;3.87;;;;;27.10;97338.00;;;;5044521;28;20614;-74
2023/07/08 08:22:33;;;;;;;7.73;3.90;;;;;27.20;97328.00;;;;5048456;28;20224;-74
2023/07/08 08:25:24;;;;;;;5.57;4.10;;;;;27.50;97324.00;;;;5042117;28;20201;-74
2023/07/08 08:28:15;;;;;;;5.07;3.40;;;;;27.50;97321.00;;;;5041565;28;20228;-74
2023/07/08 08:31:04;;;;;;;6.17;4.77;;;;;27.90;97327.00;;;;5046682;28;20579;-74
2023/07/08 08:33:53;;;;;;;7.37;5.37;;;;;27.80;97318.00;;;;5045469;28;20207;-74
2023/07/08 08:36:42;;;;;;;6.97;4.10;;;;;27.00;97324.00;;;;5043589;28;20212;-74
2023/07/08 08:39:31;;;;;;;6.60;4.03;;;;;26.70;97326.00;;;;5046781;28;20772;-72
2023/07/08 08:42:26;;;;;;;8.07;4.63;;;;;27.30;97326.00;;;;5046745;28;20285;-74
2023/07/08 08:45:20;;;;;;;7.60;4.13;;;;;28.00;97330.00;;;;5047964;28;20252;-74
2023/07/08 08:48:14;;;;;;;5.90;4.47;;;;;28.40;97322.00;;;;5046436;28;20241;-74
2023/07/08 08:51:07;;;;;;;7.00;5.23;;;;;28.70;97322.00;;;;5039423;28;20207;-74
2023/07/08 08:53:58;;;;;;;7.13;3.73;;;;;28.60;97321.00;;;;5046735;28;20210;-74
2023/07/08 08:56:53;;;;;;;7.73;3.93;;;;;28.60;97322.00;;;;5040675;28;20201;-74
2023/07/08 08:59:45;;;;;;;3.97;3.30;;;;;28.80;97316.00;;;;5041867;28;20221;-73
2023/07/08 09:02:42;;;;;;;4.80;3.70;;;;;29.20;97327.00;;;;5048198;28;20202;-73
2023/07/08 09:05:31;;;;;;;5.87;3.90;;;;;29.30;97333.00;;;;5045941;28;20301;-73
2023/07/08 09:08:24;;;;;;;4.17;3.30;;;;;29.60;97337.00;;;;5032905;28;20320;-74
2023/07/08 09:11:25;;;;;;;5.00;3.90;;;;;29.80;97345.00;;;;5042945;28;20239;-73
2023/07/08 09:14:18;;;;;;;5.77;3.57;;;;;29.80;97340.00;;;;5042245;28;20204;-73
2023/07/08 09:17:17;;;;;;;4.43;3.27;;;;;29.20;97338.00;;;;5042677;28;20213;-72
2023/07/08 09:20:18;;;;;;;6.57;4.10;;;;;28.90;97336.00;;;;5045963;28;20234;-72
2023/07/08 09:23:12;;;;;;;5.77;4.53;;;;;28.90;97339.00;;;;5043708;28;20934;-71
2023/07/08 09:26:05;;;;;;;6.00;3.70;;;;;29.20;97346.00;;;;5041271;28;20583;-72
2023/07/08 09:28:54;;;;;;;5.83;3.47;;;;;29.70;97344.00;;;;5039805;28;20223;-73
2023/07/08 09:31:43;;;;;;;4.33;3.43;;;;;29.90;97341.00;;;;5043840;28;20626;-72
2023/07/08 09:34:44;;;;;;;4.67;3.97;;;;;28.80;97336.00;;;;5042395;28;20255;-75
2023/07/08 09:37:35;;;;;;;5.50;3.50;;;;;30.00;97338.00;;;;5041148;28;20221;-73
2023/07/08 09:40:30;;;;;;;5.27;3.77;;;;;30.50;97340.00;;;;5042021;28;20281;-74
2023/07/08 09:43:26;;;;;;;7.73;3.73;;;;;30.40;97344.00;;;;5043465;28;20210;-74
2023/07/08 09:46:16;;;;;;;6.20;3.97;;;;;30.50;97332.00;;;;5041528;28;20994;-74
2023/07/08 09:49:17;;;;;;;4.10;3.33;;;;;29.50;97334.00;;;;5042836;28;20615;-73
2023/07/08 09:52:07;;;;;;;6.30;3.83;;;;;29.70;97322.00;;;;5039216;28;20215;-73
2023/07/08 09:54:57;;;;;;;4.57;3.73;;;;;30.70;97324.00;;;;5040421;28;20306;-73
2023/07/08 09:57:48;;;;;;;7.13;3.53;;;;;30.00;97327.00;;;;5047668;28;20223;-74
2023/07/08 10:00:41;;;;;;;4.83;3.70;;;;;30.20;97332.00;;;;5037921;28;20486;-72
2023/07/08 10:03:33;;;;;;;4.17;3.77;;;;;30.60;97324.00;;;;5038545;28;20259;-72
2023/07/08 10:06:24;;;;;;;5.17;3.37;;;;;29.90;97329.00;;;;5050080;28;20282;-72
2023/07/08 10:09:18;;;;;;;6.80;3.63;;;;;29.10;97321.00;;;;5002790;23;20246;-70
2023/07/08 10:12:13;;;;;;;5.83;4.17;;;;;29.20;97331.00;;;;4983757;28;20693;-71
2023/07/08 10:15:07;;;;;;;5.40;3.20;;;;;30.90;97319.00;;;;4987210;28;20221;-70
2023/07/08 10:17:56;;;;;;;6.03;3.53;;;;;31.50;97312.00;;;;4988555;28;20221;-71
2023/07/08 10:20:54;;;;;;;4.37;3.30;;;;;31.40;97312.00;;;;4986785;28;20231;-72
2023/07/08 10:23:48;;;;;;;6.50;3.47;;;;;31.70;97322.00;;;;4978438;28;20206;-71
2023/07/08 10:26:38;;;;;;;4.57;2.83;;;;;31.40;97316.00;;;;4977435;28;20209;-72
2023/07/08 10:29:35;;;;;;;4.93;3.47;;;;;31.20;97302.00;;;;4981988;28;20242;-72
2023/07/08 10:32:34;;;;;;;3.93;3.23;;;;;30.60;97297.00;;;;4986630;28;20230;-69
2023/07/08 10:35:26;;;;;;;3.73;3.43;;;;;31.40;97302.00;;;;4985729;28;20350;-69
2023/07/08 10:38:35;;;;;;;4.37;3.40;;;;;32.00;97294.00;;;;4985180;28;20238;-70
2023/07/08 10:41:30;;;;;;;4.00;3.60;;;;;32.70;97292.00;;;;4987804;28;20236;-70
2023/07/08 10:44:22;;;;;;;4.30;3.67;;;;;33.10;97293.00;;;;4988598;28;20224;-71
2023/07/08 10:47:23;;;;;;;6.17;3.90;;;;;33.70;97284.00;;;;4979994;28;20221;-71
2023/07/08 10:50:38;;;;;;;7.73;4.03;;;;;33.70;97300.00;;;;4983972;28;20217;-71
2023/07/08 10:53:44;;;;;;;4.88;3.40;;;;;33.30;97283.00;;;;4985976;28;20674;-71
2023/07/08 10:56:38;;;;;;;4.22;3.53;;;;;33.80;97283.00;;;;4987722;28;20223;-71
2023/07/08 10:59:48;;;;;;;4.18;3.42;;;;;34.00;97288.00;;;;4986751;28;20228;-70
2023/07/08 11:03:16;;;;;;;5.80;3.90;;;;;33.50;97266.00;;;;4987974;28;20207;-71
2023/07/08 11:06:11;;;;;;;5.00;3.75;;;;;33.30;97264.00;;;;4985887;28;20209;-71
2023/07/08 11:09:02;;;;;;;5.53;3.60;;;;;33.70;97264.00;;;;4986060;28;20252;-69
2023/07/08 11:11:56;;;;;;;4.05;3.70;;;;;33.30;97270.00;;;;4977561;28;20217;-71
2023/07/08 11:14:50;;;;;;;4.45;3.58;;;;;34.40;97272.00;;;;4986453;28;20213;-71
2023/07/08 11:17:43;;;;;;;7.85;4.32;;;;;34.70;97264.00;;;;4987597;28;20226;-71
2023/07/08 11:20:38;;;;;;;5.57;3.50;;;;;33.20;97248.00;;;;4980537;28;20474;-71
2023/07/08 11:23:37;;;;;;;4.22;3.35;;;;;33.60;97260.00;;;;4981913;28;20212;-71
2023/07/08 11:26:30;;;;;;;4.90;3.72;;;;;32.80;97277.00;;;;4987855;28;20243;-71
2023/07/08 11:29:21;;;;;;;5.95;3.83;;;;;33.40;97278.00;;;;4975370;28;20235;-70
2023/07/08 11:32:14;;;;;;;4.65;3.78;;;;;30.80;97273.00;;;;4977184;28;20220;-70
2023/07/08 11:35:07;;;;;;;4.30;3.78;;;;;29.80;97257.00;;;;4983224;28;20204;-70
2023/07/08 11:37:57;;;;;;;5.90;3.97;;;;;29.60;97271.00;;;;4984373;28;20242;-68
2023/07/08 11:40:55;;;;;;;8.63;3.77;;;;;30.10;97246.00;;;;4982351;28;20242;-71
2023/07/08 11:43:47;;;;;;;5.20;3.77;;;;;32.20;97244.00;;;;4985350;28;20283;-70
2023/07/08 11:46:36;;;;;;;4.60;3.43;;;;;33.50;97245.00;;;;4980254;28;20695;-71
2023/07/08 11:49:25;;;;;;;4.97;3.40;;;;;33.40;97247.00;;;;4983399;28;20240;-71
2023/07/08 11:52:18;;;;;;;5.80;3.60;;;;;34.60;97229.00;;;;4978939;28;20216;-71
2023/07/08 11:55:15;;;;;;;5.90;4.40;;;;;35.20;97240.00;;;;4987408;28;20584;-72
2023/07/08 11:58:08;;;;;;;4.88;3.92;;;;;35.40;97249.00;;;;4982093;28;20230;-70
2023/07/08 12:01:00;;;;;;;5.57;4.03;;;;;35.90;97242.00;;;;4976220;28;20226;-72
2023/07/08 12:03:51;;;;;;;5.47;4.47;;;;;36.20;97241.00;;;;4977550;28;20198;-72
2023/07/08 12:06:45;;;;;;;8.20;4.00;;;;;36.40;97242.00;;;;4984585;28;20206;-69
2023/07/08 12:09:45;;;;;;;7.95;4.40;;;;;36.60;97227.00;;;;4980104;28;20235;-70
2023/07/08 12:12:37;;;;;;;8.15;4.85;;;;;36.60;97226.00;;;;4977512;28;20210;-69
2023/07/08 12:15:29;;;;;;;4.35;3.95;;;;;37.40;97213.00;;;;4978450;28;20213;-72
2023/07/08 12:18:27;;;;;;;4.03;3.67;;;;;36.10;97229.00;;;;4979975;28;20222;-70
2023/07/08 12:21:16;;;;;;;4.75;4.32;;;;;33.20;97221.00;;;;4986701;28;20230;-68
2023/07/08 12:24:06;;;;;;;4.20;3.28;;;;;31.90;97219.00;;;;4986703;28;20625;-67
2023/07/08 12:26:56;;;;;;;4.63;3.97;;;;;34.50;97217.00;;;;4988603;28;21030;-69
2023/07/08 12:29:46;;;;;;;6.07;4.32;;;;;34.10;97216.00;;;;4980953;28;20210;-69
2023/07/08 12:32:35;;;;;;;4.50;4.07;;;;;33.90;97203.00;;;;4986486;28;20200;-68
2023/07/08 12:35:25;;;;;;;5.60;4.00;;;;;35.10;97202.00;;;;4989976;28;20691;-69
2023/07/08 12:38:21;;;;;;;5.05;4.35;;;;;35.30;97200.00;;;;4989060;28;20218;-68
2023/07/08 12:41:11;;;;;;;4.60;3.53;;;;;35.50;97196.00;;;;4987225;28;20234;-70
2023/07/08 12:44:02;;;;;;;6.32;4.07;;;;;36.60;97202.00;;;;4987548;28;20583;-70
2023/07/08 12:46:54;;;;;;;5.18;4.05;;;;;33.20;97193.00;;;;4979770;28;20249;-68
2023/07/08 12:49:43;;;;;;;6.22;4.05;;;;;33.50;97203.00;;;;4988883;28;20234;-70
2023/07/08 12:52:32;;;;;;;5.03;4.03;;;;;33.90;97201.00;;;;4987347;28;20194;-70
2023/07/08 12:55:21;;;;;;;5.47;4.65;;;;;32.50;97201.00;;;;4986975;28;20217;-70
2023/07/08 12:58:13;;;;;;;3.95;3.55;;;;;33.60;97195.00;;;;4990709;28;20222;-70
2023/07/08 13:01:05;;;;;;;5.30;4.80;;;;;34.80;97200.00;;;;4977993;28;20225;-70
2023/07/08 13:03:57;;;;;;;4.95;4.00;;;;;37.10;97197.00;;;;4980515;28;20218;-70
2023/07/08 13:06:46;;;;;;;4.90;4.40;;;;;36.80;97191.00;;;;4982702;28;20305;-70
2023/07/08 13:09:42;;;;;;;4.80;4.28;;;;;37.00;97208.00;;;;4988715;28;20237;-70
2023/07/08 13:12:34;;;;;;;6.03;3.90;;;;;36.80;97197.00;;;;4984022;28;20214;-69
2023/07/08 13:15:28;;;;;;;6.03;4.40;;;;;37.50;97200.00;;;;4987314;28;20211;-69
2023/07/08 13:18:20;;;;;;;5.23;4.10;;;;;37.80;97212.00;;;;4985612;28;20238;-70
2023/07/08 13:21:12;;;;;;;5.93;5.03;;;;;37.50;97207.00;;;;4984045;28;20696;-70
2023/07/08 13:24:01;;;;;;;4.97;4.47;;;;;38.40;97195.00;;;;4986952;28;20214;-70
2023/07/08 13:26:51;;;;;;;4.75;3.95;;;;;39.00;97196.00;;;;4987612;28;20202;-71
2023/07/08 13:29:40;;;;;;;5.20;4.40;;;;;38.50;97222.00;;;;4979815;28;20230;-69
2023/07/08 13:32:32;;;;;;;4.65;3.70;;;;;39.20;97192.00;;;;4987095;28;20217;-70
2023/07/08 13:35:26;;;;;;;4.57;4.18;;;;;37.80;97194.00;;;;4982993;28;20699;-70
2023/07/08 13:38:18;;;;;;;6.35;5.28;;;;;38.70;97197.00;;;;4987362;28;20234;-70
2023/07/08 13:41:08;;;;;;;6.55;5.20;;;;;37.10;97189.00;;;;4976486;28;20206;-70
2023/07/08 13:43:58;;;;;;;4.15;3.72;;;;;37.30;97217.00;;;;4985769;28;20207;-70
2023/07/08 13:46:53;;;;;;;4.40;3.55;;;;;35.10;97183.00;;;;4989535;28;20535;-70
2023/07/08 13:49:46;;;;;;;4.20;3.72;;;;;36.60;97185.00;;;;4987889;28;20226;-70
2023/07/08 13:52:36;;;;;;;3.97;3.58;;;;;35.80;97201.00;;;;4988591;28;20198;-71
2023/07/08 13:55:26;;;;;;;5.88;4.25;;;;;36.20;97180.00;;;;4987583;28;20210;-71
2023/07/08 13:58:17;;;;;;;4.93;4.25;;;;;37.30;97182.00;;;;4975770;28;20223;-70
2023/07/08 14:01:09;;;;;;;3.83;3.40;;;;;34.80;97216.00;;;;4983070;28;20679;-70
2023/07/08 14:04:02;;;;;;;4.47;3.95;;;;;35.60;97178.00;;;;4977797;28;20211;-70
2023/07/08 14:06:51;;;;;;;5.85;4.63;;;;;34.30;97183.00;;;;4978884;28;20207;-70
2023/07/08 14:09:41;;;;;;;6.20;4.78;;;;;37.20;97172.00;;;;4984050;28;20728;-70
2023/07/08 14:12:30;;;;;;;6.75;3.58;;;;;37.70;97180.00;;;;4985867;28;20581;-70
2023/07/08 14:15:19;;;;;;;5.30;4.43;;;;;38.30;97173.00;;;;4986457;28;20202;-71